sensor_id;sensor_type;location;lat;lon;timestamp;pressure;altitude;pressure_sealevel;temperature;humidity
63287;BME280;49410;55.708;37.522;2022-11-20T00:01:40;99434.50;;;-1.75;nan
63287;BME280;49410;55.708;37.522;2022-11-20T00:04:05;99432.59;;;-1.73;nan
63287;BME280;49410;55.708;37.522;2022-11-20T00:06:31;99427.03;;;-1.70;nan
63287;BME280;49410;55.708;37.522;2022-11-20T00:08:59;99445.00;;;-1.58;nan
63287;BME280;49410;55.708;37.522;2022-11-20T00:11:27;99440.50;;;-1.57;nan
63287;BME280;49410;55.708;37.522;2022-11-20T00:13:55;99450.66;;;-1.62;nan
63287;BME280;49410;55.708;37.522;2022-11-20T00:16:24;99447.53;;;-1.69;nan
63287;BME280;49410;55.708;37.522;2022-11-20T00:18:50;99445.13;;;-1.88;nan
63287;BME280;49410;55.708;37.522;2022-11-20T00:21:27;99438.41;;;-1.81;nan
63287;BME280;49410;55.708;37.522;2022-11-20T00:23:54;99449.38;;;-1.84;nan
63287;BME280;49410;55.708;37.522;2022-11-20T00:26:22;99422.66;;;-2.00;nan
63287;BME280;49410;55.708;37.522;2022-11-20T00:28:53;99453.47;;;-1.93;nan
63287;BME280;49410;55.708;37.522;2022-11-20T00:31:19;99438.16;;;-1.91;nan
63287;BME280;49410;55.708;37.522;2022-11-20T00:33:45;99425.91;;;-2.09;nan
63287;BME280;49410;55.708;37.522;2022-11-20T00:36:16;99445.31;;;-1.91;nan
63287;BME280;49410;55.708;37.522;2022-11-20T00:38:42;99434.50;;;-2.04;nan
63287;BME280;49410;55.708;37.522;2022-11-20T00:41:10;99456.13;;;-2.07;nan
63287;BME280;49410;55.708;37.522;2022-11-20T00:43:37;99461.97;;;-2.00;nan
63287;BME280;49410;55.708;37.522;2022-11-20T00:48:35;99457.69;;;-1.89;nan
63287;BME280;49410;55.708;37.522;2022-11-20T00:51:01;99467.94;;;-1.95;nan
63287;BME280;49410;55.708;37.522;2022-11-20T00:53:27;99453.94;;;-1.86;nan
63287;BME280;49410;55.708;37.522;2022-11-20T00:55:57;99443.91;;;-2.11;nan
63287;BME280;49410;55.708;37.522;2022-11-20T00:58:23;99461.81;;;-1.97;nan
63287;BME280;49410;55.708;37.522;2022-11-20T01:00:49;99457.56;;;-2.01;nan
63287;BME280;49410;55.708;37.522;2022-11-20T01:03:16;99455.84;;;-2.03;nan
63287;BME280;49410;55.708;37.522;2022-11-20T01:05:42;99451.47;;;-2.04;nan
63287;BME280;49410;55.708;37.522;2022-11-20T01:08:07;99468.41;;;-2.03;nan
63287;BME280;49410;55.708;37.522;2022-11-20T01:10:33;99446.66;;;-2.13;nan
63287;BME280;49410;55.708;37.522;2022-11-20T01:12:59;99469.25;;;-2.17;nan
63287;BME280;49410;55.708;37.522;2022-11-20T01:15:42;99457.22;;;-2.24;nan
63287;BME280;49410;55.708;37.522;2022-11-20T01:18:08;99454.63;;;-2.11;nan
63287;BME280;49410;55.708;37.522;2022-11-20T01:20:35;99462.00;;;-2.15;nan
63287;BME280;49410;55.708;37.522;2022-11-20T01:23:01;99454.59;;;-2.26;nan
63287;BME280;49410;55.708;37.522;2022-11-20T01:25:27;99457.66;;;-2.32;nan
63287;BME280;49410;55.708;37.522;2022-11-20T01:27:53;99464.19;;;-2.22;nan
63287;BME280;49410;55.708;37.522;2022-11-20T01:30:18;99448.84;;;-2.34;nan
63287;BME280;49410;55.708;37.522;2022-11-20T01:32:43;99464.19;;;-2.22;nan
63287;BME280;49410;55.708;37.522;2022-11-20T01:35:09;99462.75;;;-2.13;nan
63287;BME280;49410;55.708;37.522;2022-11-20T01:37:35;99456.31;;;-2.25;nan
63287;BME280;49410;55.708;37.522;2022-11-20T01:40:01;99463.22;;;-2.21;nan
63287;BME280;49410;55.708;37.522;2022-11-20T01:42:26;99467.44;;;-2.16;nan
63287;BME280;49410;55.708;37.522;2022-11-20T01:53:53;99484.06;;;-2.26;nan
63287;BME280;49410;55.708;37.522;2022-11-20T01:56:19;99475.25;;;-2.28;nan
63287;BME280;49410;55.708;37.522;2022-11-20T01:58:52;99484.34;;;-2.30;nan
63287;BME280;49410;55.708;37.522;2022-11-20T02:01:20;99486.75;;;-2.26;nan
63287;BME280;49410;55.708;37.522;2022-11-20T02:03:46;99483.00;;;-2.38;nan
63287;BME280;49410;55.708;37.522;2022-11-20T02:06:25;99505.00;;;-2.32;nan
63287;BME280;49410;55.708;37.522;2022-11-20T02:08:51;99489.41;;;-2.40;nan
63287;BME280;49410;55.708;37.522;2022-11-20T02:11:18;99492.72;;;-2.51;nan
63287;BME280;49410;55.708;37.522;2022-11-20T02:13:44;99472.06;;;-2.79;nan
63287;BME280;49410;55.708;37.522;2022-11-20T02:18:46;99487.66;;;-2.56;nan
63287;BME280;49410;55.708;37.522;2022-11-20T02:24:08;99495.78;;;-2.57;nan
63287;BME280;49410;55.708;37.522;2022-11-20T02:26:41;99506.22;;;-2.53;nan
63287;BME280;49410;55.708;37.522;2022-11-20T02:29:07;99507.06;;;-2.52;nan
63287;BME280;49410;55.708;37.522;2022-11-20T02:31:38;99514.66;;;-2.44;nan
63287;BME280;49410;55.708;37.522;2022-11-20T02:34:05;99512.34;;;-2.51;nan
63287;BME280;49410;55.708;37.522;2022-11-20T02:36:32;99506.28;;;-2.54;nan
63287;BME280;49410;55.708;37.522;2022-11-20T02:38:57;99512.06;;;-2.46;nan
63287;BME280;49410;55.708;37.522;2022-11-20T02:41:33;99508.72;;;-2.50;nan
63287;BME280;49410;55.708;37.522;2022-11-20T02:43:59;99529.16;;;-2.48;nan
63287;BME280;49410;55.708;37.522;2022-11-20T02:46:25;99522.69;;;-2.44;nan
63287;BME280;49410;55.708;37.522;2022-11-20T02:48:51;99512.06;;;-2.46;nan
63287;BME280;49410;55.708;37.522;2022-11-20T02:51:16;99526.16;;;-2.42;nan
63287;BME280;49410;55.708;37.522;2022-11-20T02:53:41;99525.19;;;-2.41;nan
63287;BME280;49410;55.708;37.522;2022-11-20T02:56:07;99525.19;;;-2.41;nan
63287;BME280;49410;55.708;37.522;2022-11-20T02:58:32;99531.50;;;-2.42;nan
63287;BME280;49410;55.708;37.522;2022-11-20T03:00:58;99515.03;;;-2.51;nan
63287;BME280;49410;55.708;37.522;2022-11-20T03:03:23;99531.34;;;-2.39;nan
63287;BME280;49410;55.708;37.522;2022-11-20T03:05:49;99531.41;;;-2.41;nan
63287;BME280;49410;55.708;37.522;2022-11-20T03:08:14;99533.03;;;-2.38;nan
63287;BME280;49410;55.708;37.522;2022-11-20T03:10:40;99515.78;;;-2.48;nan
63287;BME280;49410;55.708;37.522;2022-11-20T03:13:05;99533.72;;;-2.35;nan
63287;BME280;49410;55.708;37.522;2022-11-20T03:15:31;99531.41;;;-2.41;nan
63287;BME280;49410;55.708;37.522;2022-11-20T03:17:56;99540.38;;;-2.42;nan
63287;BME280;49410;55.708;37.522;2022-11-20T03:20:22;99533.31;;;-2.43;nan
63287;BME280;49410;55.708;37.522;2022-11-20T03:22:47;99517.59;;;-2.49;nan
63287;BME280;49410;55.708;37.522;2022-11-20T03:25:13;99527.47;;;-2.50;nan
63287;BME280;49410;55.708;37.522;2022-11-20T03:27:38;99518.53;;;-2.64;nan
63287;BME280;49410;55.708;37.522;2022-11-20T03:30:04;99539.47;;;-2.57;nan
63287;BME280;49410;55.708;37.522;2022-11-20T03:32:30;99525.94;;;-2.70;nan
63287;BME280;49410;55.708;37.522;2022-11-20T03:34:56;99535.44;;;-2.64;nan
63287;BME280;49410;55.708;37.522;2022-11-20T03:37:22;99532.75;;;-2.64;nan
63287;BME280;49410;55.708;37.522;2022-11-20T03:39:47;99528.78;;;-2.73;nan
63287;BME280;49410;55.708;37.522;2022-11-20T03:42:13;99533.72;;;-2.65;nan
63287;BME280;49410;55.708;37.522;2022-11-20T03:45:16;99530.09;;;-2.64;nan
63287;BME280;49410;55.708;37.522;2022-11-20T03:47:42;99537.41;;;-2.52;nan
63287;BME280;49410;55.708;37.522;2022-11-20T03:50:09;99523.63;;;-2.60;nan
63287;BME280;49410;55.708;37.522;2022-11-20T03:52:34;99534.63;;;-2.50;nan
63287;BME280;49410;55.708;37.522;2022-11-20T03:55:00;99554.72;;;-2.43;nan
63287;BME280;49410;55.708;37.522;2022-11-20T03:57:26;99556.56;;;-2.43;nan
63287;BME280;49410;55.708;37.522;2022-11-20T03:59:51;99545.72;;;-2.56;nan
63287;BME280;49410;55.708;37.522;2022-11-20T04:02:17;99542.09;;;-2.55;nan
63287;BME280;49410;55.708;37.522;2022-11-20T04:04:42;99547.16;;;-2.51;nan
63287;BME280;49410;55.708;37.522;2022-11-20T04:07:08;99554.75;;;-2.59;nan
63287;BME280;49410;55.708;37.522;2022-11-20T04:09:33;99563.25;;;-2.51;nan
63287;BME280;49410;55.708;37.522;2022-11-20T04:11:59;99545.25;;;-2.48;nan
63287;BME280;49410;55.708;37.522;2022-11-20T04:14:24;99552.28;;;-2.62;nan
63287;BME280;49410;55.708;37.522;2022-11-20T04:16:50;99561.00;;;-2.58;nan
63287;BME280;49410;55.708;37.522;2022-11-20T04:19:16;99561.78;;;-2.56;nan
63287;BME280;49410;55.708;37.522;2022-11-20T04:21:43;99564.34;;;-2.55;nan
63287;BME280;49410;55.708;37.522;2022-11-20T04:24:09;99559.00;;;-2.55;nan
63287;BME280;49410;55.708;37.522;2022-11-20T04:26:36;99581.06;;;-2.35;nan
63287;BME280;49410;55.708;37.522;2022-11-20T04:29:02;99566.31;;;-2.42;nan
63287;BME280;49410;55.708;37.522;2022-11-20T04:31:30;99577.28;;;-2.31;nan
63287;BME280;49410;55.708;37.522;2022-11-20T04:33:59;99578.22;;;-2.32;nan
63287;BME280;49410;55.708;37.522;2022-11-20T04:36:26;99587.88;;;-2.29;nan
63287;BME280;49410;55.708;37.522;2022-11-20T04:38:57;99583.38;;;-2.29;nan
63287;BME280;49410;55.708;37.522;2022-11-20T04:41:25;99588.84;;;-2.30;nan
63287;BME280;49410;55.708;37.522;2022-11-20T04:43:55;99583.38;;;-2.29;nan
63287;BME280;49410;55.708;37.522;2022-11-20T04:46:36;99605.06;;;-2.34;nan
63287;BME280;49410;55.708;37.522;2022-11-20T04:49:01;99609.97;;;-2.40;nan
63287;BME280;49410;55.708;37.522;2022-11-20T04:51:27;99599.06;;;-2.53;nan
63287;BME280;49410;55.708;37.522;2022-11-20T04:53:53;99621.78;;;-2.44;nan
63287;BME280;49410;55.708;37.522;2022-11-20T04:56:19;99602.69;;;-2.54;nan
63287;BME280;49410;55.708;37.522;2022-11-20T04:58:44;99619.13;;;-2.60;nan
63287;BME280;49410;55.708;37.522;2022-11-20T05:01:13;99619.66;;;-2.54;nan
63287;BME280;49410;55.708;37.522;2022-11-20T05:03:40;99623.38;;;-2.56;nan
63287;BME280;49410;55.708;37.522;2022-11-20T05:06:07;99617.81;;;-2.53;nan
63287;BME280;49410;55.708;37.522;2022-11-20T05:08:33;99612.94;;;-2.61;nan
63287;BME280;49410;55.708;37.522;2022-11-20T05:11:07;99611.00;;;-2.59;nan
63287;BME280;49410;55.708;37.522;2022-11-20T05:13:33;99625.16;;;-2.57;nan
63287;BME280;49410;55.708;37.522;2022-11-20T05:16:03;99630.78;;;-2.45;nan
63287;BME280;49410;55.708;37.522;2022-11-20T05:18:29;99614.56;;;-2.58;nan
63287;BME280;49410;55.708;37.522;2022-11-20T05:20:56;99644.94;;;-2.43;nan
63287;BME280;49410;55.708;37.522;2022-11-20T05:23:21;99625.16;;;-2.41;nan
63287;BME280;49410;55.708;37.522;2022-11-20T05:25:47;99620.47;;;-2.37;nan
63287;BME280;49410;55.708;37.522;2022-11-20T05:28:13;99639.41;;;-2.24;nan
63287;BME280;49410;55.708;37.522;2022-11-20T05:30:39;99647.59;;;-2.27;nan
63287;BME280;49410;55.708;37.522;2022-11-20T05:33:04;99643.97;;;-2.26;nan
63287;BME280;49410;55.708;37.522;2022-11-20T05:35:30;99655.66;;;-2.27;nan
63287;BME280;49410;55.708;37.522;2022-11-20T05:37:55;99654.75;;;-2.28;nan
63287;BME280;49410;55.708;37.522;2022-11-20T05:40:21;99659.53;;;-2.33;nan
63287;BME280;49410;55.708;37.522;2022-11-20T05:42:46;99658.31;;;-2.27;nan
63287;BME280;49410;55.708;37.522;2022-11-20T05:45:12;99647.25;;;-2.37;nan
63287;BME280;49410;55.708;37.522;2022-11-20T05:47:37;99663.31;;;-2.21;nan
63287;BME280;49410;55.708;37.522;2022-11-20T05:50:03;99658.84;;;-2.21;nan
63287;BME280;49410;55.708;37.522;2022-11-20T05:52:29;99657.00;;;-2.20;nan
63287;BME280;49410;55.708;37.522;2022-11-20T05:54:55;99670.56;;;-2.23;nan
63287;BME280;49410;55.708;37.522;2022-11-20T05:57:20;99675.44;;;-2.14;nan
63287;BME280;49410;55.708;37.522;2022-11-20T05:59:46;99685.88;;;-2.09;nan
63287;BME280;49410;55.708;37.522;2022-11-20T06:02:11;99683.53;;;-2.15;nan
63287;BME280;49410;55.708;37.522;2022-11-20T06:04:37;99695.03;;;-2.13;nan
63287;BME280;49410;55.708;37.522;2022-11-20T06:07:04;99686.66;;;-2.23;nan
63287;BME280;49410;55.708;37.522;2022-11-20T06:09:30;99678.53;;;-2.22;nan
63287;BME280;49410;55.708;37.522;2022-11-20T06:11:56;99693.91;;;-2.09;nan
63287;BME280;49410;55.708;37.522;2022-11-20T06:14:21;99697.44;;;-2.09;nan
63287;BME280;49410;55.708;37.522;2022-11-20T06:16:47;99697.97;;;-2.02;nan
63287;BME280;49410;55.708;37.522;2022-11-20T06:19:12;99706.56;;;-1.97;nan
63287;BME280;49410;55.708;37.522;2022-11-20T06:21:38;99720.09;;;-1.98;nan
63287;BME280;49410;55.708;37.522;2022-11-20T06:24:03;99701.59;;;-2.03;nan
63287;BME280;49410;55.708;37.522;2022-11-20T06:26:30;99727.84;;;-1.94;nan
63287;BME280;49410;55.708;37.522;2022-11-20T06:28:55;99721.13;;;-2.01;nan
63287;BME280;49410;55.708;37.522;2022-11-20T06:31:23;99749.03;;;-1.89;nan
63287;BME280;49410;55.708;37.522;2022-11-20T06:33:49;99732.63;;;-1.99;nan
63287;BME280;49410;55.708;37.522;2022-11-20T06:36:16;99730.44;;;-1.92;nan
63287;BME280;49410;55.708;37.522;2022-11-20T06:38:42;99735.25;;;-1.83;nan
63287;BME280;49410;55.708;37.522;2022-11-20T06:41:14;99726.25;;;-1.82;nan
63287;BME280;49410;55.708;37.522;2022-11-20T06:43:40;99719.25;;;-1.84;nan
63287;BME280;49410;55.708;37.522;2022-11-20T06:46:05;99718.22;;;-1.82;nan
63287;BME280;49410;55.708;37.522;2022-11-20T06:48:31;99713.56;;;-1.78;nan
63287;BME280;49410;55.708;37.522;2022-11-20T06:50:57;99713.34;;;-1.75;nan
63287;BME280;49410;55.708;37.522;2022-11-20T06:53:23;99726.22;;;-1.66;nan
63287;BME280;49410;55.708;37.522;2022-11-20T06:55:49;99708.78;;;-1.73;nan
63287;BME280;49410;55.708;37.522;2022-11-20T06:58:16;99723.25;;;-1.61;nan
63287;BME280;49410;55.708;37.522;2022-11-20T07:00:42;99711.97;;;-1.66;nan
63287;BME280;49410;55.708;37.522;2022-11-20T07:03:09;99725.66;;;-1.57;nan
63287;BME280;49410;55.708;37.522;2022-11-20T07:05:35;99729.81;;;-1.51;nan
63287;BME280;49410;55.708;37.522;2022-11-20T07:08:02;99714.09;;;-1.57;nan
63287;BME280;49410;55.708;37.522;2022-11-20T07:10:28;99717.81;;;-1.60;nan
63287;BME280;49410;55.708;37.522;2022-11-20T07:12:54;99692.19;;;-1.80;nan
63287;BME280;49410;55.708;37.522;2022-11-20T07:15:21;99735.53;;;-1.57;nan
63287;BME280;49410;55.708;37.522;2022-11-20T07:17:47;99730.06;;;-1.56;nan
63287;BME280;49410;55.708;37.522;2022-11-20T07:20:14;99706.81;;;-1.55;nan
63287;BME280;49410;55.708;37.522;2022-11-20T07:22:40;99728.69;;;-1.47;nan
63287;BME280;49410;55.708;37.522;2022-11-20T07:25:06;99739.59;;;-1.50;nan
63287;BME280;49410;55.708;37.522;2022-11-20T07:27:32;99719.06;;;-1.51;nan
63287;BME280;49410;55.708;37.522;2022-11-20T07:29:58;99720.13;;;-1.53;nan
63287;BME280;49410;55.708;37.522;2022-11-20T07:32:23;99737.22;;;-1.40;nan
63287;BME280;49410;55.708;37.522;2022-11-20T07:34:49;99730.56;;;-1.49;nan
63287;BME280;49410;55.708;37.522;2022-11-20T07:37:15;99740.25;;;-1.46;nan
63287;BME280;49410;55.708;37.522;2022-11-20T07:39:41;99730.56;;;-1.49;nan
63287;BME280;49410;55.708;37.522;2022-11-20T07:42:07;99738.44;;;-1.46;nan
63287;BME280;49410;55.708;37.522;2022-11-20T07:44:34;99751.13;;;-1.33;nan
63287;BME280;49410;55.708;37.522;2022-11-20T07:46:59;99748.72;;;-1.38;nan
63287;BME280;49410;55.708;37.522;2022-11-20T07:49:25;99733.75;;;-1.42;nan
63287;BME280;49410;55.708;37.522;2022-11-20T07:51:51;99732.03;;;-1.43;nan
63287;BME280;49410;55.708;37.522;2022-11-20T07:54:19;99743.94;;;-1.33;nan
63287;BME280;49410;55.708;37.522;2022-11-20T07:56:45;99739.53;;;-1.34;nan
63287;BME280;49410;55.708;37.522;2022-11-20T07:59:11;99752.66;;;-1.29;nan
63287;BME280;49410;55.708;37.522;2022-11-20T08:01:38;99740.97;;;-1.28;nan
63287;BME280;49410;55.708;37.522;2022-11-20T08:04:03;99756.03;;;-1.26;nan
63287;BME280;49410;55.708;37.522;2022-11-20T08:06:29;99748.84;;;-1.25;nan
63287;BME280;49410;55.708;37.522;2022-11-20T08:08:54;99753.66;;;-1.16;nan
63287;BME280;49410;55.708;37.522;2022-11-20T08:11:20;99745.94;;;-1.22;nan
63287;BME280;49410;55.708;37.522;2022-11-20T08:14:04;99757.97;;;-1.13;nan
63287;BME280;49410;55.708;37.522;2022-11-20T08:16:46;99759.19;;;-1.19;nan
63287;BME280;49410;55.708;37.522;2022-11-20T08:19:16;99771.28;;;-1.12;nan
63287;BME280;49410;55.708;37.522;2022-11-20T08:21:42;99767.56;;;-1.09;nan
63287;BME280;49410;55.708;37.522;2022-11-20T08:24:09;99749.44;;;-1.05;nan
63287;BME280;49410;55.708;37.522;2022-11-20T08:26:35;99757.59;;;-0.92;nan
63287;BME280;49410;55.708;37.522;2022-11-20T08:29:02;99782.53;;;-0.90;nan
63287;BME280;49410;55.708;37.522;2022-11-20T08:31:29;99778.97;;;-0.91;nan
63287;BME280;49410;55.708;37.522;2022-11-20T08:33:55;99782.34;;;-0.87;nan
63287;BME280;49410;55.708;37.522;2022-11-20T08:36:21;99772.38;;;-0.85;nan
63287;BME280;49410;55.708;37.522;2022-11-20T08:38:52;99781.00;;;-0.80;nan
63287;BME280;49410;55.708;37.522;2022-11-20T08:41:18;99771.41;;;-0.84;nan
63287;BME280;49410;55.708;37.522;2022-11-20T08:43:55;99784.56;;;-0.80;nan
63287;BME280;49410;55.708;37.522;2022-11-20T08:46:22;99790.69;;;-0.77;nan
63287;BME280;49410;55.708;37.522;2022-11-20T08:48:48;99780.72;;;-0.75;nan
63287;BME280;49410;55.708;37.522;2022-11-20T08:51:13;99792.91;;;-0.70;nan
63287;BME280;49410;55.708;37.522;2022-11-20T08:53:39;99799.91;;;-0.67;nan
63287;BME280;49410;55.708;37.522;2022-11-20T08:56:05;99804.22;;;-0.65;nan
63287;BME280;49410;55.708;37.522;2022-11-20T08:58:31;99813.53;;;-0.70;nan
63287;BME280;49410;55.708;37.522;2022-11-20T09:00:56;99804.91;;;-0.75;nan
63287;BME280;49410;55.708;37.522;2022-11-20T09:03:22;99811.13;;;-0.75;nan
63287;BME280;49410;55.708;37.522;2022-11-20T09:05:48;99813.06;;;-0.77;nan
63287;BME280;49410;55.708;37.522;2022-11-20T09:08:13;99824.25;;;-0.70;nan
63287;BME280;49410;55.708;37.522;2022-11-20T09:10:39;99828.38;;;-0.65;nan
63287;BME280;49410;55.708;37.522;2022-11-20T09:13:07;99843.56;;;-0.64;nan
63287;BME280;49410;55.708;37.522;2022-11-20T09:15:33;99837.03;;;-0.59;nan
63287;BME280;49410;55.708;37.522;2022-11-20T09:18:02;99844.34;;;-0.61;nan
63287;BME280;49410;55.708;37.522;2022-11-20T09:20:30;99847.69;;;-0.58;nan
63287;BME280;49410;55.708;37.522;2022-11-20T09:22:56;99848.34;;;-0.54;nan
63287;BME280;49410;55.708;37.522;2022-11-20T09:25:22;99858.91;;;-0.66;nan
63287;BME280;49410;55.708;37.522;2022-11-20T09:27:55;99857.88;;;-0.63;nan
63287;BME280;49410;55.708;37.522;2022-11-20T09:30:20;99863.63;;;-0.55;nan
63287;BME280;49410;55.708;37.522;2022-11-20T09:32:45;99869.84;;;-0.54;nan
63287;BME280;49410;55.708;37.522;2022-11-20T09:35:11;99880.59;;;-0.54;nan
63287;BME280;49410;55.708;37.522;2022-11-20T09:37:37;99861.41;;;-0.63;nan
63287;BME280;49410;55.708;37.522;2022-11-20T09:40:02;99869.34;;;-0.61;nan
63287;BME280;49410;55.708;37.522;2022-11-20T09:45:39;99880.22;;;-0.63;nan
63287;BME280;49410;55.708;37.522;2022-11-20T09:48:20;99881.16;;;-0.64;nan
63287;BME280;49410;55.708;37.522;2022-11-20T09:51:03;99877.53;;;-0.63;nan
63287;BME280;49410;55.708;37.522;2022-11-20T09:56:21;99865.03;;;-0.64;nan
63287;BME280;49410;55.708;37.522;2022-11-20T09:58:54;99871.59;;;-0.68;nan
63287;BME280;49410;55.708;37.522;2022-11-20T10:01:23;99871.38;;;-0.65;nan
63287;BME280;49410;55.708;37.522;2022-11-20T10:06:29;99865.16;;;-0.65;nan
63287;BME280;49410;55.708;37.522;2022-11-20T10:08:59;99882.63;;;-0.58;nan
63287;BME280;49410;55.708;37.522;2022-11-20T10:11:39;99889.44;;;-0.67;nan
63287;BME280;49410;55.708;37.522;2022-11-20T10:14:30;99885.09;;;-0.69;nan
63287;BME280;49410;55.708;37.522;2022-11-20T10:25:24;99894.66;;;-0.94;nan
63287;BME280;49410;55.708;37.522;2022-11-20T10:28:18;99899.22;;;-0.96;nan
63287;BME280;49410;55.708;37.522;2022-11-20T10:30:51;99888.94;;;-1.04;nan
63287;BME280;49410;55.708;37.522;2022-11-20T10:33:24;99891.75;;;-1.21;nan
63287;BME280;49410;55.708;37.522;2022-11-20T10:36:15;99902.81;;;-1.12;nan
63287;BME280;49410;55.708;37.522;2022-11-20T10:38:47;99888.13;;;-1.20;nan
63287;BME280;49410;55.708;37.522;2022-11-20T10:41:20;99891.22;;;-1.12;nan
63287;BME280;49410;55.708;37.522;2022-11-20T10:44:10;99908.25;;;-1.28;nan
63287;BME280;49410;55.708;37.522;2022-11-20T10:46:43;99901.28;;;-1.16;nan
63287;BME280;49410;55.708;37.522;2022-11-20T10:49:18;99902.56;;;-1.07;nan
63287;BME280;49410;55.708;37.522;2022-11-20T10:54:49;99917.91;;;-1.09;nan
63287;BME280;49410;55.708;37.522;2022-11-20T11:00:07;99916.00;;;-1.07;nan
63287;BME280;49410;55.708;37.522;2022-11-20T11:02:49;99905.50;;;-1.12;nan
63287;BME280;49410;55.708;37.522;2022-11-20T11:05:41;99921.34;;;-1.07;nan
63287;BME280;49410;55.708;37.522;2022-11-20T11:08:17;99918.16;;;-1.14;nan
63287;BME280;49410;55.708;37.522;2022-11-20T11:10:58;99928.00;;;-0.98;nan
63287;BME280;49410;55.708;37.522;2022-11-20T11:13:28;99920.31;;;-1.04;nan
63287;BME280;49410;55.708;37.522;2022-11-20T11:15:55;99934.03;;;-0.95;nan
63287;BME280;49410;55.708;37.522;2022-11-20T11:18:32;99932.22;;;-0.94;nan
63287;BME280;49410;55.708;37.522;2022-11-20T11:21:00;99938.47;;;-1.10;nan
63287;BME280;49410;55.708;37.522;2022-11-20T11:23:41;99939.78;;;-1.01;nan
63287;BME280;49410;55.708;37.522;2022-11-20T11:26:20;99925.47;;;-1.01;nan
63287;BME280;49410;55.708;37.522;2022-11-20T11:29:00;99942.59;;;-1.18;nan
63287;BME280;49410;55.708;37.522;2022-11-20T11:31:29;99945.72;;;-1.26;nan
63287;BME280;49410;55.708;37.522;2022-11-20T11:34:11;99908.31;;;-1.45;nan
63287;BME280;49410;55.708;37.522;2022-11-20T11:36:38;99943.56;;;-1.35;nan
63287;BME280;49410;55.708;37.522;2022-11-20T11:39:11;99932.56;;;-1.31;nan
63287;BME280;49410;55.708;37.522;2022-11-20T11:41:39;99935.22;;;-1.15;nan
63287;BME280;49410;55.708;37.522;2022-11-20T11:44:18;99928.13;;;-1.32;nan
63287;BME280;49410;55.708;37.522;2022-11-20T11:47:05;99929.44;;;-1.23;nan
63287;BME280;49410;55.708;37.522;2022-11-20T11:49:33;99934.19;;;-1.28;nan
63287;BME280;49410;55.708;37.522;2022-11-20T11:52:15;99945.44;;;-1.21;nan
63287;BME280;49410;55.708;37.522;2022-11-20T11:54:55;99947.19;;;-1.20;nan
63287;BME280;49410;55.708;37.522;2022-11-20T11:57:28;99937.56;;;-1.25;nan
63287;BME280;49410;55.708;37.522;2022-11-20T12:00:09;99944.16;;;-1.46;nan
63287;BME280;49410;55.708;37.522;2022-11-20T12:02:56;99944.78;;;-1.41;nan
63287;BME280;49410;55.708;37.522;2022-11-20T12:05:38;99959.28;;;-1.29;nan
63287;BME280;49410;55.708;37.522;2022-11-20T12:11:12;99964.34;;;-1.55;nan
63287;BME280;49410;55.708;37.522;2022-11-20T12:14:02;99952.19;;;-1.46;nan
63287;BME280;49410;55.708;37.522;2022-11-20T12:16:35;99960.88;;;-1.57;nan
63287;BME280;49410;55.708;37.522;2022-11-20T12:19:01;99942.19;;;-1.59;nan
63287;BME280;49410;55.708;37.522;2022-11-20T12:21:35;99957.56;;;-1.46;nan
63287;BME280;49410;55.708;37.522;2022-11-20T12:24:31;99959.03;;;-1.41;nan
63287;BME280;49410;55.708;37.522;2022-11-20T12:30:13;99935.41;;;-1.50;nan
63287;BME280;49410;55.708;37.522;2022-11-20T12:41:01;99951.25;;;-1.29;nan
63287;BME280;49410;55.708;37.522;2022-11-20T12:43:37;99921.66;;;-1.76;nan
63287;BME280;49410;55.708;37.522;2022-11-20T12:46:36;99962.66;;;-1.58;nan
63287;BME280;49410;55.708;37.522;2022-11-20T12:49:32;99964.16;;;-1.68;nan
63287;BME280;49410;55.708;37.522;2022-11-20T12:54:55;99961.91;;;-1.76;nan
63287;BME280;49410;55.708;37.522;2022-11-20T13:05:21;99974.72;;;-1.49;nan
63287;BME280;49410;55.708;37.522;2022-11-20T13:07:52;99971.19;;;-1.49;nan
63287;BME280;49410;55.708;37.522;2022-11-20T13:13:08;99944.94;;;-1.60;nan
63287;BME280;49410;55.708;37.522;2022-11-20T13:15:48;99982.84;;;-1.34;nan
63287;BME280;49410;55.708;37.522;2022-11-20T13:18:16;99980.06;;;-1.49;nan
63287;BME280;49410;55.708;37.522;2022-11-20T13:20:43;99981.44;;;-1.42;nan
63287;BME280;49410;55.708;37.522;2022-11-20T13:23:10;99976.88;;;-1.39;nan
63287;BME280;49410;55.708;37.522;2022-11-20T13:25:38;99967.28;;;-1.44;nan
63287;BME280;49410;55.708;37.522;2022-11-20T13:30:47;99981.81;;;-1.32;nan
63287;BME280;49410;55.708;37.522;2022-11-20T13:33:37;99989.97;;;-1.33;nan
63287;BME280;49410;55.708;37.522;2022-11-20T13:36:06;99992.81;;;-1.36;nan
63287;BME280;49410;55.708;37.522;2022-11-20T13:38:50;99987.09;;;-1.30;nan
63287;BME280;49410;55.708;37.522;2022-11-20T13:44:29;99993.34;;;-1.30;nan
63287;BME280;49410;55.708;37.522;2022-11-20T13:46:55;99979.66;;;-1.41;nan
63287;BME280;49410;55.708;37.522;2022-11-20T13:49:34;99996.28;;;-1.34;nan
63287;BME280;49410;55.708;37.522;2022-11-20T13:55:12;100000.44;;;-1.45;nan
63287;BME280;49410;55.708;37.522;2022-11-20T13:57:42;100013.22;;;-1.34;nan
63287;BME280;49410;55.708;37.522;2022-11-20T14:00:18;99999.38;;;-1.42;nan
63287;BME280;49410;55.708;37.522;2022-11-20T14:05:26;100011.50;;;-1.35;nan
63287;BME280;49410;55.708;37.522;2022-11-20T14:07:52;100004.81;;;-1.60;nan
63287;BME280;49410;55.708;37.522;2022-11-20T14:10:25;100004.47;;;-1.53;nan
63287;BME280;49410;55.708;37.522;2022-11-20T14:12:51;100006.47;;;-1.41;nan
63287;BME280;49410;55.708;37.522;2022-11-20T14:15:43;100007.00;;;-1.34;nan
63287;BME280;49410;55.708;37.522;2022-11-20T14:18:35;100026.31;;;-1.28;nan
63287;BME280;49410;55.708;37.522;2022-11-20T14:21:01;100036.19;;;-1.28;nan
63287;BME280;49410;55.708;37.522;2022-11-20T14:23:30;100034.19;;;-1.25;nan
63287;BME280;49410;55.708;37.522;2022-11-20T14:25:56;100027.16;;;-1.27;nan
63287;BME280;49410;55.708;37.522;2022-11-20T14:28:31;100037.66;;;-1.22;nan
63287;BME280;49410;55.708;37.522;2022-11-20T14:30:59;100030.22;;;-1.33;nan
63287;BME280;49410;55.708;37.522;2022-11-20T14:33:26;100031.06;;;-1.33;nan
63287;BME280;49410;55.708;37.522;2022-11-20T14:35:54;100014.53;;;-1.41;nan
63287;BME280;49410;55.708;37.522;2022-11-20T14:38:23;100036.53;;;-1.34;nan
63287;BME280;49410;55.708;37.522;2022-11-20T14:40:50;100041.69;;;-1.31;nan